world map with EBD marked

EBD - Airport

This information may not be accurate or current and is not valid for navigation or flight planning. No warranty of fitness for any purpose is made or implied.

flag of Sudan

Donate via PayPal

Additional information is available on the NEW Great Circle Mapper

Location
City:  El Obeid, North Kordofan, Sudan
ICAO / IATA:HSOB / EBD

Details
Type:Airport (Aerodrome, Airfield)
Use:Public/Civil
Latitude:13°09'12"N (13.153219)
Longitude:30°13'58"E (30.232675)
Datum:WGS 1984
Elevation:1927 ft (587 m)
Runways:1
Longest:9843 × 148 ft (3000 × 45 m)

Time
Timezone:UTC+2 (DST+4)
Local Time:

Weather
METAR:HSOB  160100Z 35008KT CAVOK 19/M01 Q1014
TAF:HSOB  161100Z 1612/1718 02010G20KT CAVOK

Related Locations
Nearby:
Farthest:MVT: 12297 mi / 19789 km
Mataiva, PF

Find:

   beyond  
but within

Other Information
Maps:
Sources:

  


 


Great Circle Mapper   Great Circle Mapper
Great Circle Mapper FAQ   Great Circle Mapper FAQ
  Karl's Home Page
KLSē   KLSē Home
   GC on Facebook
Airlines of the World   Airlines of the World
Donate via PayPal


Copyright © 2004-2018, Karl L. Swartz. All rights reserved.
All trademarks mentioned herein belong to their respective owners.

Please see credits for attribution and copyright information.

Karl Swartz <karl@kls2.com>
  Powered by FreeBSD
Valid HTML 4.01!
Labeled with ICRA
hCard Microformat
Geo Microformat